• Join FlightAware (Why Join?)
  • Login
  • US Flag 
10:27AM EDT


 

Airport Tracker/Info


-or-


 

Live Flight TrackerFlight Track Log ✈ QXE258 ✈ 27-Aug-2011 ✈ KRNO - KSEA

Flight Track Log - Related Links

Times and Time Zones

All times are in EDT time to prevent confusion due to time zone crossing. See the QXE258 flight status page for this flight to view local times or setup timezone preferences in your user account.

Time Position Orientation Groundspeed Altitude Reporting Facility
EDT Latitude Longitude Course Direction KTS MPH feet Rate Location/Type
03:41PM 39.4833 -119.7667 180° South 154 177 5,100  Level Northern Cal TRACON
03:42PM 39.4500 -119.7667 131° Southeast 177 204 6,700 1,740 Climbing Northern Cal TRACON
03:43PM 39.4167 -119.7167 360° North 219 252 8,600 1,500 Climbing Northern Cal TRACON
03:44PM 39.4833 -119.7167 333° Northwest 239 275 9,900 1,560 Climbing Northern Cal TRACON
03:45PM 39.5333 -119.7500 334° Northwest 260 299 11,800 1,620 Climbing Northern Cal TRACON
03:47PM 39.6444 -119.8219 331° Northwest 256 295 14,400 1,320 Climbing Oakland Center
03:48PM 39.7117 -119.8694 333° Northwest 263 303 15,600 1,380 Climbing Oakland Center
03:49PM 39.7808 -119.9144 334° Northwest 263 303 17,200 1,080 Climbing Oakland Center
03:50PM 39.8522 -119.9594 334° Northwest 268 308 17,800 720 Climbing Oakland Center
03:51PM 39.9278 -120.0069 332° Northwest 282 325 18,700 900 Climbing Oakland Center
03:52PM 40.0053 -120.0600 334° Northwest 296 341 19,600 900 Climbing Oakland Center
03:53PM 40.0847 -120.1106 344° North 307 353 20,600 900 Climbing Oakland Center
03:54PM 40.1683 -120.1422 343° North 307 353 21,500 720 Climbing Oakland Center
03:55PM 40.2542 -120.1764 341° North 312 359 22,100 600 Climbing Oakland Center
03:56PM 40.3356 -120.2136 345° North 312 359 22,800 600 Climbing Oakland Center
03:57PM 40.4108 -120.2397 343° North 324 373 23,300 600 Climbing Seattle Center
03:58PM 40.4986 -120.2750 342° North 326 375 24,000 300 Climbing Seattle Center
03:59PM 40.5869 -120.3128 343° North 330 380 24,000  Level Seattle Center
04:00PM 40.6814 -120.3514 343° North 343 395 24,000  Level Seattle Center
04:01PM 40.7831 -120.3933 343° North 372 428 24,000  Level Seattle Center
04:02PM 40.8853 -120.4342 344° North 381 438 24,000  Level Seattle Center
04:03PM 40.9917 -120.4747 343° North 394 453 24,000  Level Seattle Center
04:04PM 41.0942 -120.5169 343° North 391 450 24,000  Level Seattle Center
04:05PM 41.2139 -120.5661 342° North 379 436 24,000  Level Seattle Center
04:06PM 41.3136 -120.6081 343° North 378 435 24,000  Level Seattle Center
04:07PM 41.4150 -120.6500 342° North 380 437 24,000  Level Seattle Center
04:08PM 41.5158 -120.6925 343° North 380 437 24,000  Level Seattle Center
04:09PM 41.6169 -120.7350 342° North 382 440 24,000  Level Seattle Center
04:10PM 41.7197 -120.7789 342° North 385 443 24,000  Level Seattle Center
04:11PM 41.8233 -120.8231 343° North 388 447 24,000  Level Seattle Center
04:12PM 41.9264 -120.8653 342° North 389 448 24,000  Level Seattle Center
04:13PM 42.0308 -120.9103 342° North 392 451 24,000  Level Seattle Center
04:14PM 42.1536 -120.9628 342° North 390 449 24,000  Level Seattle Center
04:15PM 42.2561 -121.0069 343° North 389 448 24,000  Level Seattle Center
04:16PM 42.3586 -121.0503 343° North 388 447 24,000  Level Seattle Center
04:17PM 42.4633 -121.0947 342° North 393 452 24,000  Level Seattle Center
04:18PM 42.5672 -121.1397 343° North 393 452 24,000  Level Seattle Center
04:19PM 42.6714 -121.1839 342° North 393 452 24,000  Level Seattle Center
04:20PM 42.7750 -121.2286 342° North 393 452 24,000  Level Seattle Center
04:21PM 42.8786 -121.2753 342° North 393 452 24,000  Level Seattle Center
04:22PM 42.9831 -121.3208 342° North 394 453 24,000  Level Seattle Center
04:23PM 43.1078 -121.3753 342° North 393 452 24,000  Level Seattle Center
04:24PM 43.2114 -121.4217 342° North 393 452 24,000  Level Seattle Center
04:25PM 43.3158 -121.4683 342° North 394 453 24,000  Level Seattle Center
04:26PM 43.4192 -121.5150 342° North 393 452 24,000  Level Seattle Center
04:27PM 43.5231 -121.5614 342° North 393 452 24,000  Level Seattle Center
04:28PM 43.6264 -121.6072 342° North 391 450 24,000  Level Seattle Center
04:29PM 43.7292 -121.6522 342° North 389 448 24,000  Level Seattle Center
04:30PM 43.8403 -121.7014 342° North 386 444 24,000  Level Seattle Center
04:31PM 43.9414 -121.7467 342° North 385 443 24,000  Level Seattle Center
04:32PM 44.0417 -121.7917 342° North 383 441 24,000  Level Seattle Center
04:33PM 44.1417 -121.8372 342° North 381 438 24,000  Level Seattle Center
04:34PM 44.2414 -121.8822 342° North 380 437 24,000  Level Seattle Center
04:35PM 44.3592 -121.9347 341° North 377 434 24,000  Level Seattle Center
04:36PM 44.4569 -121.9808 342° North 374 430 24,000  Level Seattle Center
04:37PM 44.5553 -122.0267 342° North 373 429 24,000  Level Seattle Center
04:38PM 44.6525 -122.0711 342° North 371 427 24,000  Level Seattle Center
04:39PM 44.7492 -122.1153 341° North 368 423 24,000  Level Seattle Center
04:41PM 44.8458 -122.1617 342° North 367 422 24,000  Level Seattle Center
04:42PM 44.9439 -122.2075 341° North 365 420 24,000  Level Seattle Center
04:43PM 45.0400 -122.2542 342° North 365 420 24,000  Level Seattle Center
04:44PM 45.1364 -122.2986 342° North 366 421 24,000  Level Seattle Center
04:45PM 45.2319 -122.3433 341° North 364 419 24,000  Level Seattle Center
04:46PM 45.3272 -122.3892 342° North 363 418 24,000  Level Seattle Center
04:47PM 45.4217 -122.4339 342° North 363 418 24,000  Level Seattle Center
04:48PM 45.5347 -122.4864 342° North 359 413 24,000  Level Seattle Center
04:49PM 45.6300 -122.5317 341° North 360 414 24,000  Level Seattle Center
04:50PM 45.7236 -122.5786 348° North 358 412 24,000  Level Seattle Center
04:51PM 45.8192 -122.6081 351° North 344 396 24,000  Level Seattle Center
04:52PM 45.9164 -122.6303 351° North 352 405 24,000  Level Seattle Center
04:53PM 46.0125 -122.6528 350° North 350 403 24,000  Level Seattle Center
04:54PM 46.1089 -122.6761 353° North 351 404 24,000 -660 Level Seattle Center
04:55PM 46.2044 -122.6939 356° North 358 412 22,700 -1,500 Descending Seattle Center
04:56PM 46.3289 -122.7072 355° North 375 432 21,000 -1,560 Descending Seattle Center
04:57PM 46.4311 -122.7194 354° North 374 430 19,600 -1,440 Descending Seattle Center
04:58PM 46.5361 -122.7347 355° North 379 436 18,100 -1,440 Descending Seattle Center
04:59PM 46.6447 -122.7483 355° North 385 443 16,700 -1,500 Descending Seattle Center
05:00PM 46.7272 -122.7597 350° North 368 423 15,500 -1,380 Descending Seattle Center
05:00PM 46.7408 -122.7633 355° North 365 420 15,300 -1,260 Descending Seattle Center
05:01PM 46.8375 -122.7750 201° Southwest 347 399 14,000 -1,320 Descending Seattle Center
05:01PM 46.8356 -122.7761 355° North 349 402 14,000 -1,320 Level Seattle Center
05:02PM 46.9322 -122.7889 180° South 341 392 12,700 -1,260 Descending Seattle Center
05:02PM 46.9289 -122.7889 355° North 342 394 12,700 -720 Level Seattle Center
05:03PM 47.0286 -122.8022 North 321 369 12,000 -840 Descending Seattle Center
05:03PM 47.0358 -122.8017 35° Northeast 322 371 11,900 -1,080 Descending Seattle Center
05:04PM 47.1058 -122.7308 53° Northeast 309 356 10,800 -1,380 Descending Seattle Center
05:05PM 47.1522 -122.6400 61° Northeast 293 337 9,100 -1,800 Descending Seattle Center
05:06PM 47.1853 -122.5517 61° Northeast 282 325 7,600 -1,680 Descending Seattle Center
05:06PM 47.1894 -122.5406 61° Northeast 279 321 7,400 -1,620 Descending Seattle Center
05:07PM 47.2214 -122.4572 51° Northeast 268 308 6,000 -1,620 Descending Seattle Center
05:07PM 47.2261 -122.4486 52° Northeast 265 305 5,800 -1,620 Descending Seattle Center
05:08PM 47.2636 -122.3786 45° Northeast 245 282 4,400 -1,620 Descending Seattle Center
05:08PM 47.2689 -122.3708 38° Northeast 251 289 4,200 -1,620 Descending Seattle Center
05:09PM 47.3147 -122.3178 20° North 237 273 2,800 -1,380 Descending Seattle Center
05:09PM 47.3203 -122.3147 North 227 261 2,800 -1,140 Level Seattle Center
05:10PM 47.3733 -122.3117 360° North 191 220 1,700 -1,260 Descending Seattle Center
05:10PM 47.3819 -122.3117 360° North 177 204 1,500 -840 Descending Seattle Center
05:11PM 47.4089 -122.3117 North 130 150 900 -720 Descending Seattle Center
05:11PM 47.4156 -122.3114 360° North 117 135 800 -480 Descending Seattle Center
05:12PM 47.4439 -122.3114 360° North 113 130 300 -540 Descending Seattle Center